JST805 YPAD-YBBN
Flight info
| Callsign | JST805 |
|---|---|
| Flight time | 2h 0m |
| Altitude | 35000 |
| Route | UPROT Y27 ENLIP |
| Aircraft | A320/M-L/3150 |
Departure
| Time | 2025-09-10 14:33 |
|---|---|
| Airport | Adelaide International Airport (YPAD) |
Arrival
| Time | 2025-09-10 16:33 |
|---|---|
| Airport | Brisbane International Airport (YBBN) |
| Time | Latitude | Longitude | Altitude | Speed | Heading |
|---|---|---|---|---|---|
| 2025-09-10 14:12 | -34.94217 | 138.53467 | 31 ft | 0 kts | 320° |
| 2025-09-10 14:23 | -34.94235 | 138.53486 | 31 ft | 3 kts | 320° |
| 2025-09-10 14:23 | -34.94248 | 138.53499 | 31 ft | 3 kts | 320° |
| 2025-09-10 14:24 | -34.94288 | 138.53500 | 31 ft | 0 kts | 42° |
| 2025-09-10 14:27 | -34.94276 | 138.53512 | 31 ft | 3 kts | 42° |
| 2025-09-10 14:28 | -34.94155 | 138.53673 | 31 ft | 13 kts | 50° |
| 2025-09-10 14:29 | -34.94026 | 138.53859 | 31 ft | 16 kts | 50° |
| 2025-09-10 14:29 | -34.93905 | 138.54031 | 31 ft | 11 kts | 49° |
| 2025-09-10 14:30 | -34.93912 | 138.54152 | 31 ft | 8 kts | 142° |
| 2025-09-10 14:30 | -34.93958 | 138.54197 | 31 ft | 9 kts | 140° |
| 2025-09-10 14:30 | -34.93999 | 138.54238 | 31 ft | 4 kts | 140° |
| 2025-09-10 14:31 | -34.94056 | 138.54294 | 31 ft | 7 kts | 153° |
| 2025-09-10 14:32 | -34.94278 | 138.54005 | 31 ft | 80 kts | 230° |
| 2025-09-10 14:32 | -34.96087 | 138.51412 | 878 ft | 144 kts | 230° |
| 2025-09-10 14:33 | -34.97482 | 138.49353 | 1604 ft | 171 kts | 230° |
| 2025-09-10 14:33 | -34.99172 | 138.46848 | 2204 ft | 207 kts | 226° |
| 2025-09-10 14:34 | -35.01939 | 138.45785 | 3131 ft | 214 kts | 182° |
| 2025-09-10 14:34 | -35.03423 | 138.45997 | 3590 ft | 216 kts | 169° |
| 2025-09-10 14:35 | -35.06287 | 138.47183 | 4514 ft | 222 kts | 162° |
| 2025-09-10 14:35 | -35.08903 | 138.49235 | 4850 ft | 235 kts | 127° |
| 2025-09-10 14:36 | -35.09815 | 138.53349 | 5017 ft | 270 kts | 97° |
| 2025-09-10 14:36 | -35.08212 | 138.59911 | 5514 ft | 271 kts | 56° |
| 2025-09-10 14:37 | -35.05859 | 138.63454 | 7140 ft | 269 kts | 52° |
| 2025-09-10 14:37 | -35.03477 | 138.67023 | 8590 ft | 272 kts | 54° |
| 2025-09-10 14:38 | -35.02318 | 138.68849 | 9292 ft | 274 kts | 55° |
| 2025-09-10 14:38 | -34.99978 | 138.72701 | 10405 ft | 291 kts | 56° |
| 2025-09-10 14:39 | -34.97514 | 138.76891 | 11321 ft | 319 kts | 57° |
| 2025-09-10 14:39 | -34.94656 | 138.81228 | 12065 ft | 334 kts | 50° |
| 2025-09-10 14:40 | -34.91426 | 138.85395 | 13078 ft | 345 kts | 47° |
| 2025-09-10 14:40 | -34.86293 | 138.91868 | 14644 ft | 363 kts | 47° |
| 2025-09-10 14:41 | -34.82775 | 138.96364 | 15851 ft | 369 kts | 47° |
| 2025-09-10 14:41 | -34.81000 | 138.98641 | 16454 ft | 371 kts | 47° |
| 2025-09-10 14:42 | -34.77430 | 139.03245 | 17658 ft | 377 kts | 48° |
| 2025-09-10 14:42 | -34.73825 | 139.07938 | 18863 ft | 383 kts | 47° |
| 2025-09-10 14:43 | -34.70159 | 139.12714 | 20030 ft | 390 kts | 47° |
| 2025-09-10 14:43 | -34.66463 | 139.17559 | 21074 ft | 397 kts | 47° |
| 2025-09-10 14:44 | -34.62692 | 139.22514 | 22135 ft | 402 kts | 47° |
| 2025-09-10 14:44 | -34.58828 | 139.27507 | 23192 ft | 409 kts | 47° |
| 2025-09-10 14:45 | -34.57573 | 139.29230 | 23527 ft | 411 kts | 51° |
| 2025-09-10 14:45 | -34.53140 | 139.39558 | 24987 ft | 419 kts | 71° |
| 2025-09-10 14:47 | -34.47192 | 139.60066 | 26568 ft | 439 kts | 69° |
| 2025-09-10 14:49 | -34.38065 | 139.88473 | 28370 ft | 465 kts | 68° |
| 2025-09-10 14:51 | -34.28755 | 140.17869 | 29042 ft | 469 kts | 68° |
| 2025-09-10 14:53 | -34.17664 | 140.51546 | 31939 ft | 486 kts | 66° |
| 2025-09-10 14:55 | -34.08875 | 140.78230 | 34057 ft | 494 kts | 65° |
| 2025-09-10 14:57 | -33.98855 | 141.09082 | 34966 ft | 494 kts | 65° |
| 2025-09-10 14:59 | -33.88433 | 141.39649 | 34953 ft | 493 kts | 64° |
| 2025-09-10 15:01 | -33.76869 | 141.74189 | 34942 ft | 495 kts | 64° |
| 2025-09-10 15:03 | -33.64101 | 141.97941 | 34945 ft | 481 kts | 42° |
| 2025-09-10 15:05 | -33.47138 | 142.23461 | 34946 ft | 492 kts | 45° |
| 2025-09-10 15:07 | -33.30407 | 142.49321 | 34947 ft | 491 kts | 44° |
| 2025-09-10 15:09 | -33.13523 | 142.74905 | 34857 ft | 490 kts | 44° |
| 2025-09-10 15:11 | -32.97349 | 142.99323 | 34812 ft | 490 kts | 44° |
| 2025-09-10 15:13 | -32.80527 | 143.24706 | 34803 ft | 488 kts | 42° |
| 2025-09-10 15:15 | -32.63587 | 143.49833 | 34790 ft | 487 kts | 42° |
| 2025-09-10 15:17 | -32.44551 | 143.78038 | 34787 ft | 487 kts | 42° |
| 2025-09-10 15:19 | -32.29707 | 143.99979 | 34790 ft | 487 kts | 41° |
| 2025-09-10 15:21 | -32.10499 | 144.27810 | 34798 ft | 487 kts | 41° |
| 2025-09-10 15:23 | -31.95583 | 144.49585 | 34800 ft | 487 kts | 41° |
| 2025-09-10 15:25 | -31.78408 | 144.74383 | 34786 ft | 500 kts | 38° |
| 2025-09-10 15:27 | -31.60785 | 144.99580 | 34773 ft | 499 kts | 39° |
| 2025-09-10 15:29 | -31.43185 | 145.24763 | 34773 ft | 499 kts | 39° |
| 2025-09-10 15:31 | -31.25478 | 145.49647 | 34768 ft | 498 kts | 38° |
| 2025-09-10 15:33 | -31.07767 | 145.74492 | 34774 ft | 499 kts | 39° |
| 2025-09-10 15:35 | -30.90079 | 145.99406 | 34800 ft | 499 kts | 38° |
| 2025-09-10 15:37 | -30.71918 | 146.24321 | 34825 ft | 524 kts | 36° |
| 2025-09-10 15:39 | -30.53188 | 146.50190 | 34833 ft | 526 kts | 36° |
| 2025-09-10 15:41 | -30.34364 | 146.76144 | 34839 ft | 524 kts | 36° |
| 2025-09-10 15:43 | -30.15387 | 147.01863 | 34841 ft | 525 kts | 36° |
| 2025-09-10 15:45 | -29.96906 | 147.28228 | 34832 ft | 548 kts | 49° |
| 2025-09-10 15:47 | -29.88852 | 147.63249 | 34809 ft | 578 kts | 76° |
| 2025-09-10 15:49 | -29.82845 | 147.99424 | 34795 ft | 575 kts | 72° |
| 2025-09-10 15:50 | -29.77615 | 148.31115 | 34792 ft | 574 kts | 72° |
| 2025-09-10 15:53 | -29.70514 | 148.71161 | 34786 ft | 567 kts | 72° |
| 2025-09-10 15:55 | -29.64614 | 149.05253 | 34790 ft | 568 kts | 72° |
| 2025-09-10 15:57 | -29.58110 | 149.41030 | 34803 ft | 578 kts | 72° |
| 2025-09-10 15:59 | -29.51607 | 149.77173 | 34814 ft | 578 kts | 72° |
| 2025-09-10 16:01 | -29.45008 | 150.13348 | 34818 ft | 577 kts | 72° |
| 2025-09-10 16:03 | -29.37659 | 150.49005 | 34817 ft | 563 kts | 57° |
| 2025-09-10 16:05 | -29.22236 | 150.79174 | 34816 ft | 549 kts | 51° |
| 2025-09-10 16:07 | -29.07355 | 151.09562 | 34817 ft | 546 kts | 51° |
| 2025-09-10 16:09 | -28.92431 | 151.39977 | 34434 ft | 550 kts | 51° |
| 2025-09-10 16:11 | -28.74078 | 151.65426 | 30425 ft | 503 kts | 33° |
| 2025-09-10 16:13 | -28.55170 | 151.87244 | 26137 ft | 468 kts | 34° |
| 2025-09-10 16:14 | -28.46221 | 151.97663 | 24131 ft | 456 kts | 36° |
| 2025-09-10 16:14 | -28.41840 | 152.02772 | 23105 ft | 443 kts | 36° |
| 2025-09-10 16:15 | -28.37578 | 152.07689 | 22098 ft | 431 kts | 36° |
| 2025-09-10 16:15 | -28.35456 | 152.10122 | 21590 ft | 434 kts | 37° |
| 2025-09-10 16:16 | -28.29224 | 152.17315 | 20085 ft | 421 kts | 37° |
| 2025-09-10 16:16 | -28.25156 | 152.21997 | 19087 ft | 412 kts | 38° |
| 2025-09-10 16:17 | -28.21135 | 152.26576 | 18092 ft | 405 kts | 37° |
| 2025-09-10 16:17 | -28.17223 | 152.31103 | 17093 ft | 398 kts | 38° |
| 2025-09-10 16:18 | -28.13391 | 152.35519 | 16106 ft | 390 kts | 37° |
| 2025-09-10 16:18 | -28.09568 | 152.39876 | 15148 ft | 384 kts | 37° |
| 2025-09-10 16:18 | -28.07694 | 152.42011 | 14689 ft | 378 kts | 37° |
| 2025-09-10 16:19 | -28.04100 | 152.46127 | 13785 ft | 362 kts | 37° |
| 2025-09-10 16:20 | -27.98889 | 152.52082 | 12428 ft | 346 kts | 37° |
| 2025-09-10 16:20 | -27.95541 | 152.55903 | 11525 ft | 337 kts | 37° |
| 2025-09-10 16:21 | -27.92294 | 152.59597 | 10633 ft | 330 kts | 39° |
| 2025-09-10 16:21 | -27.89684 | 152.63857 | 10051 ft | 322 kts | 54° |
| 2025-09-10 16:22 | -27.87661 | 152.68203 | 9998 ft | 307 kts | 56° |
| 2025-09-10 16:22 | -27.85848 | 152.72332 | 9986 ft | 280 kts | 56° |
| 2025-09-10 16:22 | -27.85003 | 152.74301 | 9883 ft | 280 kts | 56° |
| 2025-09-10 16:23 | -27.83309 | 152.78229 | 9308 ft | 275 kts | 57° |
| 2025-09-10 16:24 | -27.80583 | 152.83787 | 8408 ft | 262 kts | 42° |
| 2025-09-10 16:24 | -27.78104 | 152.86716 | 7809 ft | 255 kts | 37° |
| 2025-09-10 16:25 | -27.75552 | 152.89466 | 7203 ft | 250 kts | 33° |
| 2025-09-10 16:25 | -27.72702 | 152.91582 | 6603 ft | 241 kts | 21° |
| 2025-09-10 16:26 | -27.69690 | 152.93108 | 6009 ft | 237 kts | 15° |
| 2025-09-10 16:26 | -27.66617 | 152.94440 | 5409 ft | 236 kts | 15° |
| 2025-09-10 16:26 | -27.65094 | 152.95147 | 5108 ft | 237 kts | 17° |
| 2025-09-10 16:27 | -27.62110 | 152.96755 | 4576 ft | 236 kts | 22° |
| 2025-09-10 16:28 | -27.57888 | 152.99426 | 3937 ft | 228 kts | 24° |
| 2025-09-10 16:28 | -27.55148 | 153.01098 | 3569 ft | 220 kts | 22° |
| 2025-09-10 16:29 | -27.52383 | 153.02642 | 3119 ft | 218 kts | 21° |
| 2025-09-10 16:29 | -27.49811 | 153.04073 | 2948 ft | 191 kts | 22° |
| 2025-09-10 16:30 | -27.47538 | 153.05401 | 2517 ft | 174 kts | 22° |
| 2025-09-10 16:30 | -27.45421 | 153.06568 | 1871 ft | 165 kts | 23° |
| 2025-09-10 16:30 | -27.44403 | 153.07126 | 1561 ft | 160 kts | 25° |
| 2025-09-10 16:31 | -27.41636 | 153.08762 | 896 ft | 140 kts | 30° |
| 2025-09-10 16:32 | -27.39954 | 153.09797 | 410 ft | 138 kts | 28° |
| 2025-09-10 16:32 | -27.38207 | 153.10746 | 48 ft | 134 kts | 27° |
| 2025-09-10 16:33 | -27.37197 | 153.11324 | 24 ft | 35 kts | 27° |
| 2025-09-10 16:33 | -27.36820 | 153.11538 | 24 ft | 19 kts | 29° |
| 2025-09-10 16:34 | -27.36678 | 153.11762 | 24 ft | 13 kts | 58° |
| 2025-09-10 16:34 | -27.36657 | 153.11908 | 24 ft | 9 kts | 115° |
| 2025-09-10 16:35 | -27.36771 | 153.11902 | 24 ft | 13 kts | 205° |
| 2025-09-10 16:35 | -27.36860 | 153.11849 | 24 ft | 16 kts | 208° |
| 2025-09-10 16:36 | -27.37196 | 153.11657 | 24 ft | 17 kts | 207° |
| 2025-09-10 16:36 | -27.37357 | 153.11583 | 24 ft | 11 kts | 142° |
| 2025-09-10 16:37 | -27.37437 | 153.11751 | 24 ft | 14 kts | 117° |
| 2025-09-10 16:37 | -27.37530 | 153.11958 | 24 ft | 16 kts | 116° |
| 2025-09-10 16:38 | -27.37635 | 153.12192 | 24 ft | 17 kts | 117° |
| 2025-09-10 16:38 | -27.37749 | 153.12442 | 24 ft | 19 kts | 117° |
| 2025-09-10 16:38 | -27.37809 | 153.12573 | 24 ft | 19 kts | 117° |
| 2025-09-10 16:39 | -27.37894 | 153.12761 | 24 ft | 10 kts | 117° |
| 2025-09-10 16:40 | -27.38110 | 153.12702 | 24 ft | 16 kts | 207° |
| 2025-09-10 16:40 | -27.38298 | 153.12594 | 24 ft | 18 kts | 207° |
| 2025-09-10 16:41 | -27.38537 | 153.12459 | 24 ft | 20 kts | 207° |
| 2025-09-10 16:41 | -27.38730 | 153.12349 | 24 ft | 12 kts | 207° |
| 2025-09-10 16:42 | -27.38786 | 153.12259 | 24 ft | 7 kts | 299° |
| 2025-09-10 16:42 | -27.38834 | 153.12167 | 24 ft | 7 kts | 216° |
| 2025-09-10 16:43 | -27.38812 | 153.12048 | 24 ft | 9 kts | 326° |
| 2025-09-10 16:43 | -27.38765 | 153.12034 | 24 ft | 7 kts | 346° |
| 2025-09-10 16:44 | -27.38726 | 153.12011 | 24 ft | 0 kts | 329° |